Time;durP1;ratioP1;P1;durP2;ratioP2;P2;SDS_P1;SDS_P2;PMS_P1;PMS_P2;Temp;Humidity;BMP_temperature;BMP_pressure;BME280_temperature;BME280_humidity;BME280_pressure;Samples;Min_cycle;Max_cycle;Signal;HPM_P1;HPM_P2
2022/12/26 00:01:13;;;;;;;4.93;2.70;;;12.00;99.90;;;;;;6255900;28;20049;-83
2022/12/26 00:04:15;;;;;;;6.68;4.25;;;12.00;99.90;;;;;;6190706;28;20049;-83
2022/12/26 00:07:16;;;;;;;3.53;2.92;;;12.00;99.90;;;;;;6259784;28;20060;-83
2022/12/26 00:10:19;;;;;;;4.22;3.10;;;12.00;99.90;;;;;;6262785;28;20053;-83
2022/12/26 00:13:22;;;;;;;4.10;2.85;;;12.20;99.90;;;;;;6261201;28;20056;-83
2022/12/26 00:16:25;;;;;;;4.35;3.42;;;12.20;99.90;;;;;;6262077;28;20049;-83
2022/12/26 00:19:26;;;;;;;4.80;2.65;;;12.20;99.90;;;;;;6259838;28;20054;-83
2022/12/26 00:22:28;;;;;;;7.43;2.85;;;12.20;99.90;;;;;;6261822;28;20049;-84
2022/12/26 00:25:33;;;;;;;5.90;3.45;;;12.30;99.90;;;;;;6258722;28;20046;-83
2022/12/26 00:28:35;;;;;;;4.70;3.95;;;12.40;99.90;;;;;;6261724;28;20520;-82
2022/12/26 00:31:36;;;;;;;4.80;3.38;;;12.40;99.90;;;;;;6262762;28;20049;-83
2022/12/26 00:34:38;;;;;;;4.97;2.60;;;12.50;99.90;;;;;;6264614;28;20055;-83
2022/12/26 00:37:40;;;;;;;8.98;3.10;;;12.50;99.90;;;;;;6266911;28;20050;-83
2022/12/26 00:40:43;;;;;;;4.30;2.67;;;12.50;99.90;;;;;;6267177;28;20045;-82
2022/12/26 00:43:45;;;;;;;3.78;2.20;;;12.60;99.90;;;;;;6266092;28;20054;-84
2022/12/26 00:46:47;;;;;;;4.05;3.10;;;12.60;99.90;;;;;;6263206;28;20056;-84
2022/12/26 00:49:48;;;;;;;3.95;2.88;;;12.60;99.90;;;;;;6263655;28;20064;-84
2022/12/26 00:52:50;;;;;;;5.32;2.75;;;12.70;99.90;;;;;;6262665;28;20041;-83
2022/12/26 00:55:54;;;;;;;2.47;1.92;;;12.80;99.90;;;;;;6264112;28;20045;-84
2022/12/26 00:58:55;;;;;;;3.97;3.22;;;12.80;99.90;;;;;;6261983;28;20045;-83
2022/12/26 01:01:57;;;;;;;3.67;3.03;;;12.90;99.90;;;;;;6262102;28;20058;-84
2022/12/26 01:04:59;;;;;;;3.17;2.38;;;13.00;99.90;;;;;;6255563;28;20042;-84
2022/12/26 01:08:01;;;;;;;5.05;3.05;;;13.10;99.90;;;;;;6253832;28;20049;-83
2022/12/26 01:11:06;;;;;;;3.60;2.70;;;13.20;99.90;;;;;;6256115;28;20622;-84
2022/12/26 01:14:11;;;;;;;2.83;2.33;;;13.20;99.90;;;;;;6255780;28;20044;-83
2022/12/26 01:17:12;;;;;;;5.03;2.42;;;13.30;99.90;;;;;;6255821;28;20057;-84
2022/12/26 01:20:14;;;;;;;2.83;2.40;;;13.40;99.90;;;;;;6255891;28;20053;-83
2022/12/26 01:23:17;;;;;;;3.45;2.55;;;13.40;99.90;;;;;;6256771;28;20045;-82
2022/12/26 01:26:19;;;;;;;4.85;3.05;;;13.50;99.90;;;;;;6257414;28;20057;-82
2022/12/26 01:29:21;;;;;;;3.67;2.97;;;13.50;99.90;;;;;;6258785;28;20050;-82
2022/12/26 01:32:23;;;;;;;4.07;2.22;;;13.50;99.90;;;;;;6255227;28;20045;-82
2022/12/26 01:35:25;;;;;;;4.63;2.45;;;13.50;99.90;;;;;;6255057;28;20049;-81
2022/12/26 01:38:27;;;;;;;5.00;3.00;;;13.50;99.90;;;;;;6248708;28;20073;-81
2022/12/26 01:41:32;;;;;;;2.45;2.22;;;13.60;99.90;;;;;;6255684;28;20053;-84
2022/12/26 01:44:58;;;;;;;3.78;3.22;;;13.60;99.90;;;;;;6259694;28;20041;-85
2022/12/26 01:48:05;;;;;;;2.97;2.55;;;13.60;99.90;;;;;;6261392;28;20526;-84
2022/12/26 01:51:07;;;;;;;3.90;2.30;;;13.70;99.90;;;;;;6261390;28;20056;-84
2022/12/26 01:54:11;;;;;;;2.40;2.00;;;13.80;99.90;;;;;;6262327;28;20415;-84
2022/12/26 01:57:19;;;;;;;3.55;1.88;;;13.70;99.90;;;;;;6264614;28;20060;-83
2022/12/26 02:00:21;;;;;;;4.82;3.55;;;13.80;99.90;;;;;;6263535;28;20045;-84
2022/12/26 02:06:43;;;;;;;4.38;2.38;;;13.80;99.90;;;;;;6259783;28;20041;-84
2022/12/26 02:09:45;;;;;;;4.07;3.00;;;13.80;99.90;;;;;;6260249;28;20052;-84
2022/12/26 02:12:49;;;;;;;4.65;2.83;;;13.80;99.90;;;;;;6259807;28;20056;-84
2022/12/26 02:15:51;;;;;;;5.43;2.42;;;13.70;99.90;;;;;;6259390;28;20056;-84
2022/12/26 02:18:53;;;;;;;3.58;2.40;;;13.70;99.90;;;;;;6258258;28;20503;-84
2022/12/26 02:22:20;;;;;;;3.28;2.30;;;13.60;99.90;;;;;;6260858;28;20691;-84
2022/12/26 02:25:49;;;;;;;4.30;3.70;;;13.60;99.90;;;;;;6257751;28;20046;-82
2022/12/26 02:29:16;;;;;;;3.13;2.35;;;13.60;99.90;;;;;;6223235;28;20056;-83
2022/12/26 02:32:31;;;;;;;3.65;3.10;;;13.70;99.90;;;;;;6253946;28;20053;-82
2022/12/26 02:35:53;;;;;;;3.60;3.00;;;13.70;99.90;;;;;;6253868;28;20046;-83
2022/12/26 02:39:07;;;;;;;3.42;2.72;;;13.70;99.90;;;;;;6251557;28;20070;-82
2022/12/26 02:42:21;;;;;;;2.92;2.63;;;13.80;99.90;;;;;;6254009;28;20072;-82
2022/12/26 02:48:57;;;;;;;2.80;2.25;;;13.80;99.90;;;;;;6252808;28;20049;-82
2022/12/26 03:19:25;;;;;;;3.92;2.30;;;13.80;99.90;;;;;;6262370;28;20045;-83
2022/12/26 03:22:34;;;;;;;4.50;2.58;;;13.90;99.90;;;;;;6260792;28;20056;-83
2022/12/26 03:32:16;;;;;;;4.93;3.58;;;13.70;99.90;;;;;;6260195;28;20045;-84
2022/12/26 03:35:17;;;;;;;8.00;2.90;;;13.70;99.90;;;;;;6258690;28;20064;-84
2022/12/26 03:38:22;;;;;;;6.28;3.22;;;13.80;99.90;;;;;;6256588;28;20049;-84
2022/12/26 04:19:26;;;;;;;4.95;2.05;;;13.80;99.90;;;;;;6241419;28;20128;-84
2022/12/26 04:46:15;;;;;;;2.55;2.03;;;14.00;99.90;;;;;;6234348;28;20042;-81
2022/12/26 04:55:58;;;;;;;5.82;2.40;;;14.10;99.90;;;;;;6257969;28;20489;-81
2022/12/26 04:58:59;;;;;;;3.83;2.45;;;14.10;99.90;;;;;;6257343;28;20045;-81
2022/12/26 05:12:03;;;;;;;4.15;2.83;;;12.90;99.90;;;;;;6260325;28;20045;-82
2022/12/26 05:15:05;;;;;;;4.25;2.97;;;12.70;99.90;;;;;;6260735;28;20054;-81
2022/12/26 05:31:29;;;;;;;3.40;2.25;;;12.40;99.90;;;;;;6256254;28;20045;-82
2022/12/26 05:34:31;;;;;;;5.75;3.65;;;12.40;99.90;;;;;;6254878;28;20064;-82
2022/12/26 05:37:34;;;;;;;4.35;3.10;;;12.40;99.90;;;;;;6253123;28;20136;-81
2022/12/26 05:40:35;;;;;;;7.18;3.38;;;12.40;99.90;;;;;;6254635;28;20125;-81
2022/12/26 05:43:37;;;;;;;4.95;2.25;;;12.40;99.90;;;;;;6255160;28;20041;-82
2022/12/26 05:46:41;;;;;;;3.90;2.78;;;12.50;99.90;;;;;;6255201;28;20392;-82
2022/12/26 05:49:44;;;;;;;4.35;3.05;;;12.50;99.90;;;;;;6253479;28;20132;-82
2022/12/26 05:52:45;;;;;;;3.22;2.92;;;12.50;99.90;;;;;;6254622;28;20045;-82
2022/12/26 05:55:47;;;;;;;4.30;3.17;;;12.50;99.90;;;;;;6254468;28;20054;-82
2022/12/26 05:58:54;;;;;;;3.58;2.97;;;12.60;99.90;;;;;;6254106;28;20049;-82
2022/12/26 06:01:56;;;;;;;4.03;2.83;;;12.60;99.90;;;;;;6257246;28;20411;-82
2022/12/26 06:04:59;;;;;;;4.85;3.47;;;12.70;99.90;;;;;;6255480;28;20061;-82
2022/12/26 06:08:00;;;;;;;3.78;3.10;;;12.70;99.90;;;;;;6255748;28;20535;-82
2022/12/26 06:11:06;;;;;;;5.85;3.15;;;12.70;99.90;;;;;;6256086;28;20503;-82
2022/12/26 06:14:08;;;;;;;6.30;2.83;;;12.80;99.90;;;;;;6255081;28;20057;-81
2022/12/26 06:17:10;;;;;;;2.90;2.53;;;12.80;99.90;;;;;;6256403;28;20041;-80
2022/12/26 06:20:13;;;;;;;4.05;3.50;;;12.80;99.90;;;;;;6254386;28;20072;-81
2022/12/26 06:23:15;;;;;;;4.35;3.08;;;12.80;99.90;;;;;;6257925;28;20041;-82
2022/12/26 06:26:17;;;;;;;3.63;2.40;;;12.90;99.90;;;;;;6258125;28;20052;-81
2022/12/26 06:29:19;;;;;;;4.53;2.72;;;12.90;99.90;;;;;;6255878;28;20049;-82
2022/12/26 06:32:20;;;;;;;5.43;2.58;;;12.90;99.90;;;;;;6254233;28;20046;-81
2022/12/26 06:35:23;;;;;;;4.03;3.28;;;12.80;99.90;;;;;;6253498;28;20038;-81
2022/12/26 06:38:25;;;;;;;7.00;3.30;;;12.60;99.90;;;;;;6253382;28;20049;-82
2022/12/26 06:41:27;;;;;;;3.63;2.90;;;12.40;99.90;;;;;;6254505;28;20050;-81
2022/12/26 06:44:28;;;;;;;5.40;3.35;;;12.20;99.90;;;;;;6253758;28;20053;-81
2022/12/26 06:47:30;;;;;;;7.13;3.90;;;12.00;99.90;;;;;;6252928;28;20046;-82
2022/12/26 06:50:35;;;;;;;3.05;2.70;;;11.90;99.90;;;;;;6252039;28;20060;-82
2022/12/26 06:53:38;;;;;;;7.97;4.88;;;11.70;99.90;;;;;;6254631;28;20053;-83
2022/12/26 06:56:40;;;;;;;5.32;3.78;;;11.70;99.90;;;;;;6254091;28;20041;-82
2022/12/26 06:59:41;;;;;;;9.73;5.15;;;11.60;99.90;;;;;;6253109;28;20052;-82
2022/12/26 07:02:43;;;;;;;5.88;4.85;;;11.60;99.90;;;;;;6253585;28;20103;-82
2022/12/26 07:05:46;;;;;;;5.32;4.55;;;11.50;99.90;;;;;;6254334;28;20045;-83
2022/12/26 07:08:48;;;;;;;5.38;4.10;;;11.50;99.90;;;;;;6252811;28;20049;-82
2022/12/26 07:11:50;;;;;;;6.97;4.05;;;11.50;99.90;;;;;;6252894;28;20046;-81
2022/12/26 07:14:52;;;;;;;4.68;4.25;;;11.40;99.90;;;;;;6253859;28;20063;-82
2022/12/26 07:17:53;;;;;;;4.93;4.50;;;11.40;99.90;;;;;;6254028;28;20103;-82
2022/12/26 07:20:56;;;;;;;8.25;5.15;;;11.40;99.90;;;;;;6253441;28;20529;-82
2022/12/26 07:23:58;;;;;;;7.07;6.22;;;11.40;99.90;;;;;;6253115;28;20096;-82
2022/12/26 07:27:00;;;;;;;7.50;6.43;;;11.40;99.90;;;;;;6254034;28;20041;-81
2022/12/26 07:30:02;;;;;;;7.07;5.78;;;11.40;99.90;;;;;;6254195;28;20049;-83
2022/12/26 07:33:03;;;;;;;8.02;5.43;;;11.40;99.90;;;;;;6255117;28;20046;-82
2022/12/26 07:36:07;;;;;;;6.50;5.82;;;11.40;99.90;;;;;;6258437;28;20045;-82
2022/12/26 07:39:12;;;;;;;12.27;10.55;;;11.40;99.90;;;;;;6252590;28;20049;-83
2022/12/26 07:42:14;;;;;;;8.27;6.43;;;11.40;99.90;;;;;;6254179;28;20053;-82
2022/12/26 07:45:16;;;;;;;7.57;5.45;;;11.30;99.90;;;;;;6254459;28;20060;-83
2022/12/26 07:48:17;;;;;;;9.68;5.38;;;11.30;99.90;;;;;;6254711;28;20045;-82
2022/12/26 07:51:21;;;;;;;9.52;6.10;;;11.30;99.90;;;;;;6252747;28;20054;-82
2022/12/26 07:54:22;;;;;;;18.15;16.67;;;11.30;99.90;;;;;;6257413;28;20058;-83
2022/12/26 07:57:24;;;;;;;13.38;11.35;;;11.20;99.90;;;;;;6255198;28;20049;-83
2022/12/26 08:00:26;;;;;;;9.80;7.22;;;11.20;99.90;;;;;;6254338;28;20046;-82
2022/12/26 08:03:27;;;;;;;25.25;23.02;;;11.20;99.90;;;;;;6256675;28;20056;-82
2022/12/26 08:06:30;;;;;;;18.83;16.83;;;11.20;99.90;;;;;;6254767;28;20045;-82
2022/12/26 08:09:32;;;;;;;12.15;9.55;;;11.20;99.90;;;;;;6254243;28;20056;-82
2022/12/26 08:12:34;;;;;;;12.95;11.65;;;11.20;99.90;;;;;;6255243;28;20042;-81
2022/12/26 08:15:38;;;;;;;13.25;10.60;;;11.20;99.90;;;;;;6254702;28;20059;-82
2022/12/26 08:18:40;;;;;;;16.17;12.90;;;11.20;99.90;;;;;;6251466;28;20067;-82
2022/12/26 08:21:43;;;;;;;20.23;18.08;;;11.20;99.90;;;;;;6251449;28;20054;-83
2022/12/26 08:24:44;;;;;;;14.63;12.25;;;11.20;99.90;;;;;;6220532;28;20054;-83
2022/12/26 08:27:46;;;;;;;8.23;6.63;;;11.20;99.90;;;;;;6258466;28;20038;-81
2022/12/26 08:30:48;;;;;;;8.30;6.15;;;11.20;99.90;;;;;;6252345;28;20050;-83
2022/12/26 08:33:50;;;;;;;10.02;6.97;;;11.20;99.90;;;;;;6255989;28;20050;-81
2022/12/26 08:36:53;;;;;;;9.95;5.53;;;11.20;99.90;;;;;;6256690;28;20041;-83
2022/12/26 08:39:55;;;;;;;6.53;5.68;;;11.20;99.90;;;;;;6249305;28;20096;-81
2022/12/26 08:42:57;;;;;;;6.10;4.93;;;11.20;99.90;;;;;;6253193;28;20438;-82
2022/12/26 08:46:00;;;;;;;12.57;8.18;;;11.20;99.90;;;;;;6252344;28;20055;-82
2022/12/26 08:49:01;;;;;;;8.32;6.63;;;11.20;99.90;;;;;;6251682;28;20507;-82
2022/12/26 08:52:04;;;;;;;17.17;10.73;;;11.20;99.90;;;;;;6250240;28;20045;-81
2022/12/26 08:55:07;;;;;;;7.60;6.28;;;11.20;99.90;;;;;;6252910;28;20045;-81
2022/12/26 08:58:08;;;;;;;7.70;6.57;;;11.20;99.90;;;;;;6255109;28;20041;-82
2022/12/26 09:01:12;;;;;;;14.43;7.53;;;11.20;99.90;;;;;;6257094;28;20056;-82
2022/12/26 09:04:14;;;;;;;10.25;8.93;;;11.20;99.90;;;;;;6256067;28;20060;-81
2022/12/26 09:07:18;;;;;;;5.32;4.80;;;11.20;99.90;;;;;;6255734;28;20045;-81
2022/12/26 09:10:19;;;;;;;6.65;5.03;;;11.20;99.90;;;;;;6255307;28;20057;-81
2022/12/26 09:13:21;;;;;;;5.43;4.43;;;11.20;99.90;;;;;;6256098;28;20045;-82
2022/12/26 09:16:25;;;;;;;8.00;5.07;;;11.10;99.90;;;;;;6255272;28;20046;-81
2022/12/26 09:19:31;;;;;;;8.25;4.22;;;11.10;99.90;;;;;;6253869;28;20045;-82
2022/12/26 09:22:53;;;;;;;5.45;3.88;;;11.10;99.90;;;;;;6257447;28;20061;-83
2022/12/26 09:25:54;;;;;;;4.10;3.05;;;11.10;99.90;;;;;;6259258;28;20042;-84
2022/12/26 09:28:57;;;;;;;9.07;4.05;;;11.10;99.90;;;;;;6260131;28;20048;-82
2022/12/26 09:31:59;;;;;;;6.38;3.80;;;11.10;99.90;;;;;;6260262;28;20462;-82
2022/12/26 09:35:01;;;;;;;5.53;3.05;;;11.10;99.90;;;;;;6263048;28;20060;-84
2022/12/26 09:38:04;;;;;;;7.63;6.40;;;11.10;99.90;;;;;;6260969;28;20132;-83
2022/12/26 09:41:19;;;;;;;9.45;8.55;;;11.10;99.90;;;;;;6268595;22;20045;-79
2022/12/26 09:44:27;;;;;;;6.68;4.68;;;11.10;99.90;;;;;;6257524;28;20057;-79
2022/12/26 09:47:31;;;;;;;;;;;11.10;99.90;;;;;;6251805;28;20053;-78
2022/12/26 09:50:36;;;;;;;7.75;4.97;;;11.10;99.90;;;;;;6250846;28;19928;-79
2022/12/26 09:53:42;;;;;;;6.07;4.95;;;11.10;99.90;;;;;;6251435;28;20136;-79
2022/12/26 09:56:46;;;;;;;7.57;4.65;;;11.10;99.90;;;;;;6249916;28;20044;-78
2022/12/26 09:59:52;;;;;;;9.25;6.07;;;11.10;99.90;;;;;;6249244;28;20064;-76
2022/12/26 10:02:56;;;;;;;11.52;6.40;;;11.10;99.90;;;;;;6250102;28;20048;-76
2022/12/26 10:06:08;;;;;;;10.98;5.80;;;11.10;99.90;;;;;;6250425;28;20072;-76
2022/12/26 10:09:28;;;;;;;8.55;5.57;;;11.10;99.90;;;;;;6250330;28;20053;-78
2022/12/26 10:12:38;;;;;;;10.00;5.43;;;11.20;99.90;;;;;;6250314;28;20055;-78
2022/12/26 10:15:45;;;;;;;9.40;6.13;;;11.20;99.90;;;;;;6249214;28;20060;-77
2022/12/26 10:18:56;;;;;;;7.63;6.10;;;11.20;99.90;;;;;;6250032;28;20045;-78
2022/12/26 10:22:12;;;;;;;8.57;6.43;;;11.20;99.90;;;;;;6249902;28;20684;-77
2022/12/26 10:25:19;;;;;;;8.57;6.22;;;11.20;99.90;;;;;;6251122;28;20057;-78
2022/12/26 10:28:30;;;;;;;13.60;6.27;;;11.20;99.90;;;;;;6249051;28;20052;-77
2022/12/26 10:31:37;;;;;;;9.68;6.63;;;11.20;99.90;;;;;;6249335;28;20387;-77
2022/12/26 10:34:41;;;;;;;9.15;5.50;;;11.20;99.90;;;;;;6249189;28;20071;-76
2022/12/26 10:37:43;;;;;;;41.67;24.83;;;11.20;99.90;;;;;;6249236;28;20045;-77
2022/12/26 10:40:50;;;;;;;13.48;8.70;;;11.20;99.90;;;;;;6248782;28;20415;-76
2022/12/26 10:43:52;;;;;;;8.77;6.55;;;11.20;99.90;;;;;;6249112;28;20045;-76
2022/12/26 10:47:07;;;;;;;10.45;6.63;;;11.30;99.90;;;;;;6248358;28;20525;-77
2022/12/26 10:50:15;;;;;;;9.90;6.32;;;11.30;99.90;;;;;;6248114;28;20049;-76
2022/12/26 10:53:17;;;;;;;14.13;8.43;;;11.30;99.90;;;;;;6248185;28;20056;-77
2022/12/26 10:56:24;;;;;;;13.07;6.32;;;11.30;99.90;;;;;;6245773;28;20038;-78
2022/12/26 10:59:40;;;;;;;8.40;6.80;;;11.40;99.90;;;;;;6247478;28;20503;-77
2022/12/26 11:02:42;;;;;;;7.45;5.45;;;11.40;99.90;;;;;;6248656;28;20049;-77
2022/12/26 11:05:46;;;;;;;13.07;6.10;;;11.40;99.90;;;;;;6249102;28;20056;-77
2022/12/26 11:08:49;;;;;;;11.90;5.10;;;11.40;99.90;;;;;;6248980;28;20052;-77
2022/12/26 11:11:53;;;;;;;6.50;5.57;;;11.50;99.90;;;;;;6248580;28;20053;-77
2022/12/26 11:14:59;;;;;;;5.20;4.60;;;11.50;99.90;;;;;;6248397;28;20041;-78
2022/12/26 11:18:14;;;;;;;8.07;4.35;;;11.50;99.90;;;;;;6248181;28;20045;-78
2022/12/26 11:21:22;;;;;;;5.45;3.92;;;11.50;99.90;;;;;;6249083;28;20411;-78
2022/12/26 11:24:24;;;;;;;5.10;3.47;;;11.50;99.90;;;;;;6248301;28;20057;-77
2022/12/26 11:27:27;;;;;;;3.90;3.25;;;11.50;99.90;;;;;;6247704;28;20037;-78
2022/12/26 11:30:31;;;;;;;4.18;2.70;;;11.50;99.90;;;;;;6247775;28;20042;-78
2022/12/26 11:33:36;;;;;;;3.53;2.90;;;11.50;99.90;;;;;;6249038;28;20056;-77
2022/12/26 11:36:40;;;;;;;3.90;2.50;;;11.50;99.90;;;;;;6248089;28;20426;-78
2022/12/26 11:39:41;;;;;;;2.42;2.22;;;11.50;99.90;;;;;;6247065;28;20545;-78
2022/12/26 11:42:49;;;;;;;2.22;2.03;;;11.40;99.90;;;;;;6247758;28;20045;-79
2022/12/26 11:45:51;;;;;;;2.47;1.85;;;11.50;99.90;;;;;;6249061;28;20053;-78
2022/12/26 11:48:53;;;;;;;3.15;1.90;;;11.50;99.90;;;;;;6247806;28;20057;-79
2022/12/26 11:51:54;;;;;;;4.55;1.58;;;11.50;99.90;;;;;;6248672;28;20159;-79
2022/12/26 11:54:56;;;;;;;3.83;1.45;;;11.50;99.90;;;;;;6247724;28;20042;-77
2022/12/26 11:58:05;;;;;;;2.67;1.63;;;11.50;99.90;;;;;;6249013;28;20042;-78
2022/12/26 12:01:12;;;;;;;1.83;1.40;;;11.50;99.90;;;;;;6249865;28;20072;-79
2022/12/26 12:04:16;;;;;;;4.55;1.20;;;11.50;99.90;;;;;;6249876;28;20057;-80
2022/12/26 12:07:31;;;;;;;2.90;1.00;;;11.50;99.90;;;;;;6250845;28;20053;-79
2022/12/26 12:10:56;;;;;;;1.35;1.15;;;11.50;99.90;;;;;;6249234;28;20494;-78
2022/12/26 12:14:13;;;;;;;1.80;1.70;;;11.50;99.90;;;;;;6249861;28;20060;-78
2022/12/26 12:17:23;;;;;;;5.50;1.38;;;11.50;99.90;;;;;;6250853;28;20049;-79
2022/12/26 12:20:35;;;;;;;1.15;1.00;;;11.50;99.90;;;;;;6248959;28;20415;-78
2022/12/26 12:24:04;;;;;;;1.25;1.00;;;11.60;99.90;;;;;;6248793;28;20410;-78
2022/12/26 12:27:14;;;;;;;2.88;1.50;;;11.60;99.90;;;;;;6245377;28;20514;-78
2022/12/26 12:30:19;;;;;;;4.07;1.17;;;11.60;99.90;;;;;;6250579;28;20057;-78
2022/12/26 12:33:33;;;;;;;1.67;1.58;;;11.50;99.90;;;;;;6254147;28;20054;-78
2022/12/26 12:36:44;;;;;;;2.78;2.03;;;11.50;99.90;;;;;;6253604;28;20048;-79
2022/12/26 12:39:55;;;;;;;1.60;1.30;;;11.40;99.90;;;;;;6252708;28;20049;-80
2022/12/26 12:43:06;;;;;;;2.47;1.30;;;11.30;99.90;;;;;;6253461;28;20041;-77
2022/12/26 12:46:22;;;;;;;2.42;1.65;;;11.20;99.90;;;;;;6253852;28;20155;-78
2022/12/26 12:49:37;;;;;;;2.35;1.85;;;11.10;99.90;;;;;;6254724;28;20053;-79
2022/12/26 12:52:47;;;;;;;1.80;1.52;;;11.10;99.90;;;;;;6254082;28;20049;-78
2022/12/26 12:56:13;;;;;;;3.50;2.80;;;11.00;99.90;;;;;;6248917;28;20042;-78
2022/12/26 12:59:26;;;;;;;3.38;2.58;;;11.00;99.90;;;;;;6251787;28;20041;-79
2022/12/26 13:02:34;;;;;;;3.90;2.05;;;11.00;99.90;;;;;;6252386;28;20045;-77
2022/12/26 13:05:40;;;;;;;;;;;11.10;99.90;;;;;;6253813;28;20053;-77
2022/12/26 13:08:46;;;;;;;3.22;1.90;;;11.10;99.90;;;;;;6252816;28;19925;-77
2022/12/26 13:11:53;;;;;;;1.77;1.63;;;11.10;99.90;;;;;;6252804;28;20050;-78
2022/12/26 13:14:58;;;;;;;3.45;1.60;;;11.10;99.90;;;;;;6252151;28;20422;-78
2022/12/26 13:18:04;;;;;;;3.28;1.70;;;11.10;99.90;;;;;;6254056;28;20041;-77
2022/12/26 13:21:10;;;;;;;4.35;2.30;;;11.10;99.90;;;;;;6254778;28;20406;-77
2022/12/26 13:24:26;;;;;;;1.77;1.67;;;11.00;99.90;;;;;;6253161;28;20057;-78
2022/12/26 13:27:31;;;;;;;3.47;1.50;;;11.00;99.90;;;;;;6252457;28;20042;-78
2022/12/26 13:30:33;;;;;;;2.55;1.67;;;10.90;99.90;;;;;;6252526;28;20049;-78
2022/12/26 13:33:36;;;;;;;2.80;2.40;;;10.90;99.90;;;;;;6253087;28;20050;-78
2022/12/26 13:36:41;;;;;;;2.03;1.83;;;10.90;99.90;;;;;;6251351;28;20045;-78
2022/12/26 13:39:43;;;;;;;2.30;1.80;;;11.00;99.90;;;;;;6250508;28;20395;-79
2022/12/26 13:46:53;;;;;;;2.05;1.50;;;11.00;99.90;;;;;;6251178;28;20049;-78
2022/12/26 13:49:55;;;;;;;2.53;2.22;;;11.00;99.90;;;;;;6251196;28;20042;-78
2022/12/26 13:52:57;;;;;;;2.10;1.67;;;11.00;99.90;;;;;;6250781;28;20056;-77
2022/12/26 13:56:01;;;;;;;2.53;1.38;;;11.00;99.90;;;;;;6249620;28;20050;-77
2022/12/26 13:59:10;;;;;;;2.17;1.65;;;11.00;99.90;;;;;;6250280;28;20057;-78
2022/12/26 14:02:56;;;;;;;5.05;3.65;;;11.00;99.90;;;;;;6250618;28;20065;-77
2022/12/26 14:06:39;;;;;;;2.95;2.08;;;11.00;99.90;;;;;;6199094;28;20057;-77
2022/12/26 14:09:57;;;;;;;3.63;2.47;;;11.00;99.90;;;;;;6229481;28;20495;-77
2022/12/26 14:13:07;;;;;;;3.57;2.10;;;11.00;99.90;;;;;;6250567;28;20204;-77
2022/12/26 14:16:19;;;;;;;3.17;2.47;;;11.00;99.90;;;;;;6250070;28;20045;-77
2022/12/26 14:19:37;;;;;;;8.68;3.00;;;11.00;99.90;;;;;;6250207;28;20132;-77
2022/12/26 14:22:47;;;;;;;4.22;3.65;;;11.00;99.90;;;;;;6253170;28;20420;-79
2022/12/26 14:25:55;;;;;;;3.97;2.60;;;10.90;99.90;;;;;;6251327;28;20045;-78
2022/12/26 14:28:59;;;;;;;;;;;10.90;99.90;;;;;;6250585;28;20038;-79
2022/12/26 14:32:27;;;;;;;3.33;2.88;;;10.80;99.90;;;;;;6250536;28;19928;-80
2022/12/26 14:35:35;;;;;;;6.45;3.17;;;10.80;99.90;;;;;;6249961;28;20045;-78
2022/12/26 14:38:47;;;;;;;84.97;56.60;;;10.80;99.90;;;;;;6249785;28;20045;-75
2022/12/26 14:45:49;;;;;;;5.97;5.40;;;10.80;99.90;;;;;;6241491;28;20046;-80
2022/12/26 14:48:56;;;;;;;11.18;10.20;;;10.80;99.90;;;;;;6251306;28;20041;-79
2022/12/26 14:52:48;;;;;;;9.23;5.18;;;10.80;99.90;;;;;;6252000;28;20056;-79
2022/12/26 14:55:52;;;;;;;9.20;7.15;;;10.80;99.90;;;;;;6208911;28;20041;-77
2022/12/26 14:59:26;;;;;;;4.80;3.60;;;10.80;99.90;;;;;;6249857;28;20419;-79
2022/12/26 15:02:31;;;;;;;5.75;3.42;;;10.80;99.90;;;;;;6251120;28;20043;-78
2022/12/26 15:05:36;;;;;;;5.88;4.07;;;10.80;99.90;;;;;;6250662;28;20138;-78
2022/12/26 15:08:56;;;;;;;3.25;2.28;;;10.80;99.90;;;;;;6249555;28;20048;-78
2022/12/26 15:12:28;;;;;;;3.90;2.83;;;10.80;99.90;;;;;;6250752;28;20056;-79
2022/12/26 15:15:40;;;;;;;5.00;3.45;;;10.80;99.90;;;;;;6248122;28;20042;-79
2022/12/26 15:19:17;;;;;;;2.90;1.42;;;10.80;99.90;;;;;;6250163;28;20049;-79
2022/12/26 15:22:59;;;;;;;4.18;3.08;;;10.80;99.90;;;;;;6250591;28;20056;-78
2022/12/26 15:26:35;;;;;;;4.03;2.42;;;10.80;99.90;;;;;;6248032;28;20056;-78
2022/12/26 15:29:59;;;;;;;3.05;2.35;;;10.90;99.90;;;;;;6239884;28;20046;-78
2022/12/26 15:33:08;;;;;;;2.70;2.35;;;10.80;99.90;;;;;;6248000;28;20069;-78
2022/12/26 15:36:21;;;;;;;2.97;2.03;;;10.80;99.90;;;;;;6248447;28;20053;-77
2022/12/26 15:39:30;;;;;;;5.05;3.33;;;10.80;99.90;;;;;;6248129;28;20061;-78
2022/12/26 15:42:43;;;;;;;4.35;3.22;;;10.80;99.90;;;;;;6262813;22;20427;-78
2022/12/26 15:45:48;;;;;;;7.65;4.70;;;10.80;99.90;;;;;;6247974;28;20052;-78
2022/12/26 15:49:12;;;;;;;11.25;7.50;;;10.80;99.90;;;;;;6246847;28;20041;-78
2022/12/26 15:52:22;;;;;;;18.30;9.10;;;10.80;99.90;;;;;;6243400;28;20045;-78
2022/12/26 15:55:36;;;;;;;12.77;8.35;;;10.80;99.90;;;;;;6239025;28;20046;-78
2022/12/26 15:59:05;;;;;;;13.95;10.43;;;10.80;99.90;;;;;;6245583;28;20495;-78
2022/12/26 16:02:12;;;;;;;6.05;4.45;;;10.80;99.90;;;;;;6250672;28;20045;-80
2022/12/26 16:05:44;;;;;;;3.80;3.13;;;10.80;99.90;;;;;;6259191;28;20033;-80
2022/12/26 16:08:58;;;;;;;5.13;3.47;;;10.70;99.90;;;;;;6258701;28;20041;-81
2022/12/26 16:12:01;;;;;;;7.80;5.25;;;10.70;99.90;;;;;;6257772;28;20132;-80
2022/12/26 16:15:17;;;;;;;6.65;4.95;;;10.70;99.90;;;;;;6258557;28;20049;-80
2022/12/26 16:18:21;;;;;;;6.50;4.88;;;10.70;99.90;;;;;;6260524;28;20058;-80
2022/12/26 16:24:47;;;;;;;10.27;5.07;;;10.70;99.90;;;;;;6258948;28;20045;-80
2022/12/26 16:27:51;;;;;;;5.97;4.78;;;10.70;99.90;;;;;;6260484;28;20037;-81
2022/12/26 16:30:56;;;;;;;7.88;5.10;;;10.70;99.90;;;;;;6261382;28;20057;-80
2022/12/26 16:33:59;;;;;;;8.75;4.47;;;10.60;99.90;;;;;;6261155;28;20045;-80
2022/12/26 16:37:04;;;;;;;5.40;4.25;;;10.70;99.90;;;;;;6258466;28;20045;-80
2022/12/26 16:40:16;;;;;;;9.35;4.40;;;10.60;99.90;;;;;;6260244;28;20545;-85
2022/12/26 16:43:27;;;;;;;9.43;5.13;;;10.70;99.90;;;;;;6259040;28;20415;-79
2022/12/26 16:46:30;;;;;;;7.50;4.20;;;10.60;99.90;;;;;;6255417;28;20422;-80
2022/12/26 16:49:32;;;;;;;5.97;4.07;;;10.60;99.90;;;;;;6255382;28;20042;-80
2022/12/26 16:52:35;;;;;;;8.75;5.10;;;10.60;99.90;;;;;;6254832;28;20048;-79
2022/12/26 16:55:41;;;;;;;9.70;5.65;;;10.60;99.90;;;;;;6256439;28;20076;-81
2022/12/26 16:58:43;;;;;;;10.40;7.25;;;10.60;99.90;;;;;;6260896;28;20056;-81
2022/12/26 17:01:52;;;;;;;9.15;4.68;;;10.60;99.90;;;;;;6258328;28;20136;-80
2022/12/26 17:04:59;;;;;;;11.32;6.18;;;10.70;99.90;;;;;;6257062;28;20052;-79
2022/12/26 17:08:03;;;;;;;7.38;4.63;;;10.60;99.90;;;;;;6255510;28;20053;-78
2022/12/26 17:11:04;;;;;;;8.98;5.43;;;10.70;99.90;;;;;;6255169;28;20041;-80
2022/12/26 17:14:15;;;;;;;14.15;6.40;;;10.60;99.90;;;;;;6255884;28;20046;-79
2022/12/26 17:17:31;;;;;;;9.73;6.25;;;10.70;99.90;;;;;;6253563;28;20061;-79
2022/12/26 17:20:40;;;;;;;9.25;6.15;;;10.70;99.90;;;;;;6252125;28;20045;-79
2022/12/26 17:23:42;;;;;;;10.73;5.97;;;10.70;99.90;;;;;;6252429;28;20046;-79
2022/12/26 17:26:49;;;;;;;12.80;6.40;;;10.70;99.90;;;;;;6250994;28;20053;-79
2022/12/26 17:29:54;;;;;;;8.00;6.28;;;10.70;99.90;;;;;;6250541;28;20419;-79
2022/12/26 17:33:02;;;;;;;11.18;7.10;;;10.70;99.90;;;;;;6250774;28;20045;-79
2022/12/26 17:36:10;;;;;;;8.93;7.07;;;10.70;99.90;;;;;;6252127;28;20053;-79
2022/12/26 17:39:18;;;;;;;16.08;7.32;;;10.70;99.90;;;;;;6250488;28;20045;-85
2022/12/26 17:42:20;;;;;;;11.20;7.18;;;10.70;99.90;;;;;;6250716;28;20057;-78
2022/12/26 17:45:27;;;;;;;44.70;9.20;;;10.70;99.90;;;;;;6249673;28;20045;-79
2022/12/26 17:48:30;;;;;;;11.93;7.55;;;10.60;99.90;;;;;;6250246;28;20042;-79
2022/12/26 17:51:33;;;;;;;10.82;6.22;;;10.60;99.90;;;;;;6246379;28;20049;-80
2022/12/26 17:54:34;;;;;;;9.52;6.78;;;10.60;99.90;;;;;;6251516;28;20041;-80
2022/12/26 17:57:36;;;;;;;9.95;6.00;;;10.60;99.90;;;;;;6250241;28;20056;-79
2022/12/26 18:00:39;;;;;;;11.13;6.70;;;10.60;99.90;;;;;;6249438;28;20059;-80
2022/12/26 18:03:42;;;;;;;10.68;5.70;;;10.60;99.90;;;;;;6248907;28;20537;-78
2022/12/26 18:06:43;;;;;;;9.13;5.50;;;10.60;99.90;;;;;;6249004;28;20119;-78
2022/12/26 18:09:46;;;;;;;10.32;6.45;;;10.50;99.90;;;;;;6250200;28;20057;-79
2022/12/26 18:12:49;;;;;;;6.97;3.70;;;10.50;99.90;;;;;;6251164;28;20056;-81
2022/12/26 18:15:52;;;;;;;5.38;4.45;;;10.50;99.90;;;;;;6253110;28;20049;-79
2022/12/26 18:18:55;;;;;;;4.07;2.78;;;10.50;99.90;;;;;;6250132;28;20053;-79
2022/12/26 18:21:56;;;;;;;5.82;3.42;;;10.40;99.90;;;;;;6250494;28;20049;-79
2022/12/26 18:24:58;;;;;;;5.22;2.67;;;10.40;99.90;;;;;;6249420;28;20052;-80
2022/12/26 18:28:00;;;;;;;4.38;1.85;;;10.30;99.90;;;;;;6248811;28;20037;-78
2022/12/26 18:31:02;;;;;;;4.65;2.88;;;10.30;99.90;;;;;;6250716;28;20045;-79
2022/12/26 18:34:05;;;;;;;5.50;3.05;;;10.30;99.90;;;;;;6250862;28;20096;-80